Terminal Aerodrome Forecast
Issued by NWS

Home | Current Version | Previous Version | Text Only | Print | Product List | Glossary On
Versions: 1 2 3 4 5 6 7 8 9 10 11 12 13 14 15
000
FTUS42 KTBW 271700 RRA
TAFPIE
TAF
KPIE 271745Z 2718/2818 09006KT P6SM SCT025 BKN035
     FM272100 VRB03KT P6SM SCT035
     FM280900 VRB02KT 5SM BR SCT005 BKN010
     FM281400 VRB02KT 5SM BR SCT005=

USA.gov is the U.S. government's official web portal to all federal, state and local government web resources and services.